Time;durP1;ratioP1;P1;durP2;ratioP2;P2;SDS_P1;SDS_P2;PMS_P1;PMS_P2;Temp;Humidity;BMP_temperature;BMP_pressure;BME280_temperature;BME280_humidity;BME280_pressure;Samples;Min_cycle;Max_cycle;Signal;HPM_P1;HPM_P2
2022/09/03 00:00:05;;;;;;;6.90;6.13;;;17.50;99.90;;;;;;5054695;28;20437;-92
2022/09/03 00:02:42;;;;;;;7.73;6.97;;;17.50;99.90;;;;;;5037223;28;20510;-94
2022/09/03 00:05:35;;;;;;;9.97;6.87;;;17.50;99.90;;;;;;5038781;28;20473;-94
2022/09/03 00:08:24;;;;;;;7.53;6.70;;;17.40;99.90;;;;;;5043800;28;20450;-93
2022/09/03 00:11:03;;;;;;;7.23;6.50;;;17.40;99.90;;;;;;5061497;28;20422;-91
2022/09/03 00:13:36;;;;;;;6.50;5.90;;;17.40;99.90;;;;;;5043437;28;20438;-91
2022/09/03 00:16:09;;;;;;;7.23;6.50;;;17.40;99.90;;;;;;5043446;28;20462;-92
2022/09/03 00:18:42;;;;;;;9.20;7.20;;;17.40;99.90;;;;;;5043305;28;20451;-92
2022/09/03 00:21:12;;;;;;;10.50;7.60;;;17.40;99.90;;;;;;5043617;28;20485;-95
2022/09/03 00:23:41;;;;;;;9.17;6.60;;;17.30;99.90;;;;;;5061709;28;20476;-94
2022/09/03 00:26:13;;;;;;;7.17;6.53;;;17.30;99.90;;;;;;5043265;28;21074;-94
2022/09/03 00:29:06;;;;;;;8.23;6.37;;;17.30;99.90;;;;;;5061465;28;20484;-91
2022/09/03 00:31:37;;;;;;;7.27;6.47;;;17.30;99.90;;;;;;5043329;28;20773;-94
2022/09/03 00:34:13;;;;;;;7.80;6.57;;;17.30;99.90;;;;;;5043618;28;20915;-93
2022/09/03 00:36:44;;;;;;;6.37;5.77;;;17.30;99.90;;;;;;5043761;28;20835;-94
2022/09/03 00:39:13;;;;;;;7.30;6.60;;;17.30;99.90;;;;;;5061701;28;20450;-91
2022/09/03 00:42:14;;;;;;;7.17;5.63;;;17.30;99.90;;;;;;5043540;28;20480;-91
2022/09/03 00:45:21;;;;;;;7.47;6.43;;;17.20;99.90;;;;;;5046339;28;20451;-94
2022/09/03 00:47:55;;;;;;;8.57;5.70;;;17.30;99.90;;;;;;4970452;28;20438;-93
2022/09/03 00:50:44;;;;;;;8.50;6.60;;;17.20;99.90;;;;;;5038928;28;20495;-93
2022/09/03 00:53:37;;;;;;;7.53;6.40;;;17.20;99.90;;;;;;5047332;28;20442;-94
2022/09/03 00:56:08;;;;;;;9.00;6.33;;;17.20;99.90;;;;;;5043935;28;20468;-91
2022/09/03 00:59:05;;;;;;;6.47;5.67;;;17.20;99.90;;;;;;5044419;28;20430;-91
2022/09/03 01:01:55;;;;;;;7.13;6.07;;;17.20;99.90;;;;;;5046330;28;20991;-91
2022/09/03 01:04:39;;;;;;;8.23;6.70;;;17.10;99.90;;;;;;5049264;28;20457;-92
2022/09/03 01:07:20;;;;;;;9.20;7.27;;;17.10;99.90;;;;;;5046585;28;20459;-92
2022/09/03 01:09:57;;;;;;;7.60;6.80;;;17.10;99.90;;;;;;5045206;28;20434;-91
2022/09/03 01:12:51;;;;;;;9.93;8.20;;;17.10;99.90;;;;;;5066382;28;20881;-91
2022/09/03 01:15:17;;;;;;;7.87;6.70;;;17.10;99.90;;;;;;5048855;28;20446;-94
2022/09/03 01:17:53;;;;;;;7.13;6.43;;;17.10;99.90;;;;;;5069630;28;20434;-91
2022/09/03 01:20:29;;;;;;;7.47;5.97;;;17.00;99.90;;;;;;5048398;28;20693;-94
2022/09/03 01:23:13;;;;;;;7.67;6.87;;;17.00;99.90;;;;;;5040489;28;20445;-91
2022/09/03 01:25:54;;;;;;;9.60;6.73;;;17.00;99.90;;;;;;5040143;28;20476;-91
2022/09/03 01:28:53;;;;;;;7.10;6.10;;;17.00;99.90;;;;;;5040681;28;20459;-94
2022/09/03 01:31:39;;;;;;;7.33;5.70;;;16.90;99.90;;;;;;5040194;28;20430;-95
2022/09/03 01:34:54;;;;;;;7.77;6.20;;;16.90;99.90;;;;;;5039965;28;20435;-94
2022/09/03 01:37:26;;;;;;;7.80;6.23;;;16.90;99.90;;;;;;4961787;28;20438;-91
2022/09/03 01:40:25;;;;;;;10.90;6.67;;;16.90;99.90;;;;;;4977426;28;20434;-92
2022/09/03 01:43:18;;;;;;;10.63;6.80;;;16.90;99.90;;;;;;5042752;28;20534;-93
2022/09/03 01:45:58;;;;;;;6.70;5.70;;;16.90;99.90;;;;;;5044254;28;20443;-93
2022/09/03 01:48:39;;;;;;;7.03;5.73;;;16.80;99.90;;;;;;5041301;28;20480;-93
2022/09/03 01:51:16;;;;;;;7.13;5.97;;;16.80;99.90;;;;;;5040274;28;20446;-93
2022/09/03 01:54:14;;;;;;;6.70;5.80;;;16.80;99.90;;;;;;5040921;28;20437;-94
2022/09/03 01:56:49;;;;;;;9.07;7.13;;;16.80;99.90;;;;;;5031414;28;20411;-92
2022/09/03 01:59:25;;;;;;;6.77;6.07;;;16.80;99.90;;;;;;5067537;28;20529;-91
2022/09/03 02:02:09;;;;;;;8.40;5.97;;;16.80;99.90;;;;;;5039612;28;20498;-93
2022/09/03 02:04:35;;;;;;;5.97;5.37;;;16.80;99.90;;;;;;5051352;28;20435;-93
2022/09/03 02:07:02;;;;;;;11.10;6.90;;;16.80;99.90;;;;;;5038912;28;20456;-92
2022/09/03 02:09:28;;;;;;;7.87;7.07;;;16.80;99.90;;;;;;5039354;28;20765;-91
2022/09/03 02:12:02;;;;;;;6.77;6.10;;;16.80;99.90;;;;;;5039095;28;20430;-94
2022/09/03 02:14:29;;;;;;;7.63;6.43;;;16.80;99.90;;;;;;5039196;28;20435;-91
2022/09/03 02:16:57;;;;;;;10.30;7.53;;;16.80;99.90;;;;;;5040939;28;20838;-95
2022/09/03 02:19:23;;;;;;;8.13;6.17;;;16.80;99.90;;;;;;5040896;28;20442;-93
2022/09/03 02:21:54;;;;;;;7.40;6.27;;;16.80;99.90;;;;;;5038946;28;20474;-92
2022/09/03 02:24:20;;;;;;;8.40;7.00;;;16.80;99.90;;;;;;5038733;28;20526;-92
2022/09/03 02:26:46;;;;;;;9.47;5.93;;;16.80;99.90;;;;;;5038486;28;20498;-93
2022/09/03 02:29:13;;;;;;;7.47;5.83;;;16.80;99.90;;;;;;5040467;28;20446;-94
2022/09/03 02:31:39;;;;;;;8.20;7.10;;;16.80;99.90;;;;;;5045958;28;20185;-92
2022/09/03 02:34:05;;;;;;;7.60;6.87;;;16.80;99.90;;;;;;5059601;28;20500;-95
2022/09/03 02:36:37;;;;;;;6.47;5.87;;;16.80;99.90;;;;;;5058315;28;20181;-92
2022/09/03 02:39:03;;;;;;;6.10;5.60;;;16.80;99.90;;;;;;5058133;28;20211;-95
2022/09/03 02:41:41;;;;;;;9.97;6.90;;;16.90;99.90;;;;;;5039836;28;20987;-93
2022/09/03 02:44:47;;;;;;;7.30;5.97;;;16.80;99.90;;;;;;5058113;28;20419;-92
2022/09/03 02:47:13;;;;;;;6.47;5.80;;;16.90;99.90;;;;;;5001140;28;20443;-92
2022/09/03 02:49:39;;;;;;;6.60;6.00;;;16.90;99.90;;;;;;5039847;28;20794;-94
2022/09/03 02:52:08;;;;;;;6.47;5.87;;;16.90;99.90;;;;;;5057692;28;20515;-91
2022/09/03 02:54:38;;;;;;;8.67;6.43;;;16.90;99.90;;;;;;5039536;28;20209;-91
2022/09/03 02:57:06;;;;;;;7.27;6.37;;;16.90;99.90;;;;;;5039689;28;20407;-93
2022/09/03 02:59:32;;;;;;;7.43;6.67;;;16.90;99.90;;;;;;5039547;28;20518;-94
2022/09/03 03:01:58;;;;;;;8.83;6.87;;;16.90;99.90;;;;;;5039901;28;20467;-91
2022/09/03 03:04:23;;;;;;;6.40;5.70;;;16.90;99.90;;;;;;5040938;28;20446;-91
2022/09/03 03:06:52;;;;;;;7.63;6.83;;;16.90;99.90;;;;;;5041553;28;20182;-92
2022/09/03 03:09:17;;;;;;;7.20;6.50;;;16.90;99.90;;;;;;5060292;28;20210;-94
2022/09/03 03:11:43;;;;;;;6.07;5.57;;;16.90;99.90;;;;;;5038219;28;20418;-91
2022/09/03 03:14:09;;;;;;;7.17;5.97;;;16.90;99.90;;;;;;5038443;28;20210;-93
2022/09/03 03:16:35;;;;;;;9.87;6.10;;;16.90;99.90;;;;;;5038969;28;20622;-91
2022/09/03 03:19:01;;;;;;;7.53;6.50;;;16.90;99.90;;;;;;5038668;28;20506;-92
2022/09/03 03:21:27;;;;;;;6.53;5.33;;;16.90;99.90;;;;;;5039421;28;20506;-92
2022/09/03 03:23:53;;;;;;;7.57;6.43;;;17.00;99.90;;;;;;5039808;28;21041;-92
2022/09/03 03:26:21;;;;;;;8.10;6.70;;;16.90;99.90;;;;;;5024519;28;20487;-93
2022/09/03 03:28:55;;;;;;;7.40;6.10;;;16.90;99.90;;;;;;5036250;28;20185;-94
2022/09/03 03:31:21;;;;;;;7.50;6.30;;;16.90;99.90;;;;;;5018220;28;20408;-94
2022/09/03 03:33:56;;;;;;;7.43;6.63;;;16.90;99.90;;;;;;5018670;28;20464;-92
2022/09/03 03:36:23;;;;;;;6.73;6.03;;;16.90;99.90;;;;;;5020617;28;20415;-94
2022/09/03 03:38:53;;;;;;;7.80;6.50;;;16.90;99.90;;;;;;5021966;28;20435;-93
2022/09/03 03:41:21;;;;;;;8.30;6.13;;;16.90;99.90;;;;;;5016824;28;20482;-94
2022/09/03 03:43:51;;;;;;;7.80;6.30;;;16.90;99.90;;;;;;5017494;28;20427;-91
2022/09/03 03:46:17;;;;;;;9.20;7.00;;;16.90;99.90;;;;;;5018174;28;20416;-95
2022/09/03 03:48:43;;;;;;;7.10;6.07;;;16.90;99.90;;;;;;5017869;28;20450;-92
2022/09/03 03:51:09;;;;;;;8.30;7.17;;;16.90;99.90;;;;;;5017322;28;20216;-94
2022/09/03 03:53:38;;;;;;;8.43;6.47;;;16.90;99.90;;;;;;5017803;28;20265;-94
2022/09/03 03:56:08;;;;;;;9.20;7.50;;;16.90;99.90;;;;;;5017395;28;20428;-91
2022/09/03 03:58:34;;;;;;;8.07;6.60;;;16.90;99.90;;;;;;5017616;28;20478;-91
2022/09/03 04:01:08;;;;;;;8.30;7.00;;;16.90;99.90;;;;;;5017627;28;20833;-93
2022/09/03 04:03:35;;;;;;;7.10;6.33;;;16.90;99.90;;;;;;5017840;28;20457;-92
2022/09/03 04:06:03;;;;;;;14.10;6.70;;;16.90;99.90;;;;;;5019748;28;20482;-92
2022/09/03 04:08:29;;;;;;;7.33;6.40;;;17.00;99.90;;;;;;5045893;28;20408;-93
2022/09/03 04:11:00;;;;;;;9.03;6.53;;;16.90;99.90;;;;;;5023541;28;21023;-95
2022/09/03 04:13:34;;;;;;;9.13;6.77;;;16.90;99.90;;;;;;5035686;28;20519;-94
2022/09/03 04:16:11;;;;;;;7.33;6.60;;;16.90;99.90;;;;;;5018774;28;20443;-92
2022/09/03 04:18:38;;;;;;;10.37;6.70;;;16.90;99.90;;;;;;5019948;28;20936;-92
2022/09/03 04:21:08;;;;;;;6.50;5.90;;;16.90;99.90;;;;;;5025677;28;20476;-94
2022/09/03 04:23:39;;;;;;;6.67;5.87;;;16.90;99.90;;;;;;5020242;28;20474;-92
2022/09/03 04:26:06;;;;;;;7.17;6.43;;;16.90;99.90;;;;;;5030315;28;20458;-93
2022/09/03 04:28:34;;;;;;;6.57;5.97;;;16.90;99.90;;;;;;5037591;28;20451;-92
2022/09/03 04:31:09;;;;;;;9.73;8.13;;;16.90;99.90;;;;;;5037415;28;20431;-94
2022/09/03 04:33:36;;;;;;;8.10;6.50;;;16.90;99.90;;;;;;5055085;28;20437;-91
2022/09/03 04:36:04;;;;;;;10.80;6.63;;;16.90;99.90;;;;;;5036462;28;20812;-94
2022/09/03 04:38:31;;;;;;;11.80;8.10;;;16.90;99.90;;;;;;5037076;28;20442;-91
2022/09/03 04:40:58;;;;;;;9.23;7.70;;;16.90;99.90;;;;;;5040711;28;20875;-94
2022/09/03 04:43:24;;;;;;;8.50;7.60;;;16.90;99.90;;;;;;5040073;28;20789;-94
2022/09/03 04:45:50;;;;;;;10.87;7.40;;;16.90;99.90;;;;;;5038229;28;20481;-92
2022/09/03 04:48:15;;;;;;;7.50;6.70;;;16.90;99.90;;;;;;5037831;28;20442;-93
2022/09/03 04:50:41;;;;;;;7.33;6.63;;;16.90;99.90;;;;;;5038910;28;20681;-92
2022/09/03 04:53:06;;;;;;;9.00;7.03;;;16.90;99.90;;;;;;5053161;28;20194;-94
2022/09/03 04:55:34;;;;;;;7.50;6.80;;;16.90;99.90;;;;;;5055078;28;20555;-92
2022/09/03 04:58:00;;;;;;;7.40;6.70;;;16.90;99.90;;;;;;5050020;28;20190;-94
2022/09/03 05:00:26;;;;;;;7.70;7.00;;;16.90;99.90;;;;;;5041590;28;20974;-94
2022/09/03 05:02:52;;;;;;;9.60;7.97;;;16.90;99.90;;;;;;5040697;28;20233;-94
2022/09/03 05:05:18;;;;;;;7.93;6.87;;;16.90;99.90;;;;;;5040625;28;20427;-94
2022/09/03 05:07:44;;;;;;;10.13;6.90;;;17.00;99.90;;;;;;5058850;28;20186;-94
2022/09/03 05:10:15;;;;;;;8.33;6.93;;;17.00;99.90;;;;;;5040623;28;20437;-93
2022/09/03 05:12:41;;;;;;;8.07;6.50;;;17.00;99.90;;;;;;5042497;28;20462;-94
2022/09/03 05:15:07;;;;;;;8.73;7.23;;;17.00;99.90;;;;;;5046861;28;20463;-93
2022/09/03 05:17:32;;;;;;;7.07;6.47;;;17.00;99.90;;;;;;5043633;28;20493;-94
2022/09/03 05:19:58;;;;;;;7.17;6.40;;;17.10;99.90;;;;;;5042682;28;20519;-93
2022/09/03 05:22:24;;;;;;;8.87;6.80;;;17.10;99.90;;;;;;5041953;28;20229;-95
2022/09/03 05:24:49;;;;;;;8.87;7.77;;;17.10;99.90;;;;;;5041189;28;20241;-93
2022/09/03 05:27:16;;;;;;;8.60;6.90;;;17.10;99.90;;;;;;5041241;28;20197;-91
2022/09/03 05:29:45;;;;;;;11.73;7.43;;;17.10;99.90;;;;;;5051575;28;20214;-92
2022/09/03 05:32:16;;;;;;;10.23;8.20;;;17.20;99.90;;;;;;5041180;28;20423;-93
2022/09/03 05:34:42;;;;;;;8.40;7.00;;;17.20;99.90;;;;;;5039748;28;20442;-91
2022/09/03 05:37:07;;;;;;;7.73;6.80;;;17.20;99.90;;;;;;5039777;28;20419;-94
2022/09/03 05:39:33;;;;;;;10.53;8.53;;;17.30;99.90;;;;;;5039328;28;20533;-91
2022/09/03 05:41:59;;;;;;;10.17;8.17;;;17.30;99.90;;;;;;5039242;28;20529;-95
2022/09/03 05:44:24;;;;;;;7.33;6.47;;;17.30;99.90;;;;;;5040468;28;20213;-95
2022/09/03 05:46:50;;;;;;;8.30;6.70;;;17.40;99.90;;;;;;5044841;28;20178;-94
2022/09/03 05:49:16;;;;;;;7.60;6.10;;;17.40;99.90;;;;;;5047308;28;20202;-94
2022/09/03 05:51:42;;;;;;;10.97;7.70;;;17.50;99.90;;;;;;5044269;28;20289;-94
2022/09/03 05:54:09;;;;;;;8.60;7.10;;;17.50;99.90;;;;;;5058772;28;20956;-91
2022/09/03 05:56:36;;;;;;;9.10;7.07;;;17.60;99.90;;;;;;5042491;28;20208;-92
2022/09/03 05:59:07;;;;;;;7.87;6.63;;;17.60;99.90;;;;;;5040335;28;20509;-93
2022/09/03 06:01:36;;;;;;;7.80;6.50;;;17.70;99.90;;;;;;5041603;28;20494;-94
2022/09/03 06:04:04;;;;;;;7.23;6.50;;;17.80;99.90;;;;;;5039921;28;20436;-92
2022/09/03 06:06:33;;;;;;;8.70;6.57;;;17.90;99.90;;;;;;5040227;28;20563;-94
2022/09/03 06:09:01;;;;;;;10.03;7.13;;;18.00;99.90;;;;;;5041189;28;20419;-91
2022/09/03 06:11:28;;;;;;;7.20;6.47;;;18.00;99.90;;;;;;5047073;28;20817;-92
2022/09/03 06:13:56;;;;;;;6.40;5.80;;;18.10;99.90;;;;;;5038788;28;20467;-91
2022/09/03 06:16:22;;;;;;;8.07;6.30;;;18.20;99.90;;;;;;5040018;28;20426;-93
2022/09/03 06:18:48;;;;;;;6.70;5.57;;;18.20;99.90;;;;;;5043363;28;20426;-94
2022/09/03 06:21:14;;;;;;;9.43;6.30;;;18.30;99.90;;;;;;5040518;28;20991;-91
2022/09/03 06:23:41;;;;;;;6.77;5.60;;;18.30;99.90;;;;;;5039994;28;20640;-92
2022/09/03 06:26:12;;;;;;;8.53;6.93;;;18.30;99.90;;;;;;5039427;28;20474;-93
2022/09/03 06:28:42;;;;;;;6.30;5.40;;;18.40;99.90;;;;;;5039887;28;20451;-93
2022/09/03 06:31:10;;;;;;;5.23;4.73;;;18.50;99.90;;;;;;5039647;28;20436;-91
2022/09/03 06:33:37;;;;;;;5.73;5.17;;;18.50;99.90;;;;;;5039706;28;20484;-91
2022/09/03 06:36:05;;;;;;;4.93;4.43;;;18.60;99.90;;;;;;5039641;28;21065;-93
2022/09/03 06:38:36;;;;;;;7.93;6.30;;;18.70;99.90;;;;;;5049676;28;20407;-91
2022/09/03 06:41:06;;;;;;;5.57;5.07;;;18.90;99.90;;;;;;5057639;28;20476;-90
2022/09/03 06:43:35;;;;;;;5.87;5.00;;;19.00;99.90;;;;;;5047847;28;20525;-94
2022/09/03 06:46:04;;;;;;;6.37;4.60;;;19.20;99.90;;;;;;5038835;28;20453;-92
2022/09/03 06:48:31;;;;;;;7.23;6.17;;;19.30;99.90;;;;;;5039661;28;20441;-90
2022/09/03 06:51:00;;;;;;;6.90;5.17;;;19.40;99.90;;;;;;5039029;28;20442;-90
2022/09/03 06:53:27;;;;;;;7.13;6.10;;;19.50;99.90;;;;;;5056695;28;20882;-93
2022/09/03 06:55:58;;;;;;;5.17;4.67;;;19.70;99.90;;;;;;5040602;28;20542;-94
2022/09/03 06:58:29;;;;;;;5.77;5.17;;;19.80;99.90;;;;;;5041169;28;20465;-93
2022/09/03 07:01:01;;;;;;;6.60;5.57;;;19.90;99.90;;;;;;5038610;28;20561;-93
2022/09/03 07:03:27;;;;;;;20.63;6.80;;;20.00;99.90;;;;;;5038549;28;20428;-93
2022/09/03 07:05:53;;;;;;;7.40;5.47;;;20.00;99.90;;;;;;5038990;28;20596;-93
2022/09/03 07:08:18;;;;;;;5.40;4.77;;;20.10;99.90;;;;;;5039547;28;20231;-94
2022/09/03 07:10:49;;;;;;;5.90;5.30;;;20.20;99.90;;;;;;5038856;28;20209;-93
2022/09/03 07:13:15;;;;;;;4.67;4.20;;;20.30;99.90;;;;;;5037967;28;20197;-93
2022/09/03 07:15:41;;;;;;;5.97;4.97;;;20.40;99.90;;;;;;5057264;28;20923;-94
2022/09/03 07:18:07;;;;;;;8.53;7.67;;;20.40;99.90;;;;;;5063402;28;20185;-94
2022/09/03 07:20:33;;;;;;;6.00;5.50;;;20.50;99.90;;;;;;5039789;28;20623;-96
2022/09/03 07:22:58;;;;;;;6.97;6.37;;;20.60;99.90;;;;;;5039701;28;20430;-93
2022/09/03 07:25:27;;;;;;;5.07;4.57;;;20.60;99.90;;;;;;5056934;28;20710;-94
2022/09/03 07:27:53;;;;;;;8.70;6.00;;;20.70;99.90;;;;;;5057907;28;20190;-93
2022/09/03 07:30:19;;;;;;;7.63;6.10;;;20.80;99.90;;;;;;5060570;28;20482;-94
2022/09/03 07:32:45;;;;;;;9.33;5.97;;;20.90;99.90;;;;;;5052026;28;20248;-93
2022/09/03 07:35:12;;;;;;;8.10;6.13;;;20.90;99.90;;;;;;5038400;28;20430;-93
2022/09/03 07:37:42;;;;;;;5.20;4.43;;;21.00;99.90;;;;;;5038727;28;20438;-94
2022/09/03 07:40:09;;;;;;;4.90;4.40;;;21.10;99.90;;;;;;5038836;28;20470;-95
2022/09/03 07:42:37;;;;;;;6.80;5.20;;;21.10;99.90;;;;;;5042288;28;20513;-95
2022/09/03 07:45:11;;;;;;;4.87;4.30;;;21.20;99.90;;;;;;5044904;28;20535;-93
2022/09/03 07:47:36;;;;;;;7.37;4.63;;;21.30;99.90;;;;;;5056584;28;20470;-93
2022/09/03 07:50:04;;;;;;;6.07;4.10;;;21.40;99.90;;;;;;5038821;28;20427;-92
2022/09/03 07:52:29;;;;;;;7.80;5.40;;;21.50;99.90;;;;;;5044068;28;20178;-92
2022/09/03 07:54:55;;;;;;;12.57;5.60;;;21.60;99.90;;;;;;5039835;28;20439;-93
2022/09/03 07:57:21;;;;;;;8.30;4.87;;;21.70;99.90;;;;;;5037518;28;20423;-96
2022/09/03 07:59:47;;;;;;;4.90;4.20;;;21.80;99.90;;;;;;5037639;28;20248;-93
2022/09/03 08:02:12;;;;;;;5.97;4.83;;;21.90;99.90;;;;;;5055230;28;20573;-94
2022/09/03 08:04:39;;;;;;;8.33;7.03;;;21.90;99.90;;;;;;5056470;28;20197;-94
2022/09/03 08:07:05;;;;;;;9.20;5.23;;;22.00;99.90;;;;;;5039139;28;20196;-93
2022/09/03 08:09:31;;;;;;;5.83;5.10;;;22.10;99.90;;;;;;5045113;28;20514;-95
2022/09/03 08:11:57;;;;;;;6.37;5.30;;;22.10;99.90;;;;;;5057512;28;20185;-93
2022/09/03 08:14:23;;;;;;;6.27;5.10;;;22.20;99.90;;;;;;5046971;28;20419;-95
2022/09/03 08:16:48;;;;;;;7.03;5.20;;;22.30;99.90;;;;;;5061178;28;20178;-93
2022/09/03 08:19:17;;;;;;;5.57;5.17;;;22.40;99.90;;;;;;5036929;28;20329;-92
2022/09/03 08:21:43;;;;;;;6.47;5.20;;;22.50;99.90;;;;;;5037032;28;20303;-92
2022/09/03 08:24:10;;;;;;;5.87;5.30;;;22.60;99.90;;;;;;5039416;28;20446;-94
2022/09/03 08:26:39;;;;;;;6.00;5.40;;;22.70;99.90;;;;;;5057315;28;20467;-93
2022/09/03 08:29:05;;;;;;;5.40;4.90;;;22.80;99.90;;;;;;5043326;28;20450;-92
2022/09/03 08:31:32;;;;;;;6.13;4.97;;;22.90;99.90;;;;;;5046379;28;20469;-94
2022/09/03 08:34:05;;;;;;;9.00;5.27;;;23.00;99.90;;;;;;5053154;28;20477;-88
2022/09/03 08:36:33;;;;;;;7.00;6.30;;;23.00;99.90;;;;;;5074577;28;20395;-88
2022/09/03 08:39:08;;;;;;;7.13;6.40;;;23.00;99.90;;;;;;5039271;28;20833;-88
2022/09/03 08:41:52;;;;;;;7.77;5.57;;;23.00;99.90;;;;;;5040432;28;20477;-93
2022/09/03 08:44:32;;;;;;;5.57;4.47;;;23.10;99.90;;;;;;5040436;28;20462;-89
2022/09/03 08:47:13;;;;;;;5.10;4.60;;;23.30;99.90;;;;;;5040070;28;20415;-88
2022/09/03 08:49:54;;;;;;;7.60;5.97;;;23.80;99.90;;;;;;5056741;28;20433;-95
2022/09/03 08:52:30;;;;;;;5.40;4.80;;;24.40;99.90;;;;;;5037932;28;20435;-93
2022/09/03 08:55:22;;;;;;;7.87;5.77;;;24.80;99.90;;;;;;5038222;28;20439;-96
2022/09/03 08:57:51;;;;;;;5.00;4.60;;;25.20;99.90;;;;;;5040850;28;20425;-95
2022/09/03 09:00:18;;;;;;;12.00;5.83;;;25.30;99.90;;;;;;5046575;28;20445;-89
2022/09/03 09:02:52;;;;;;;5.53;5.03;;;25.20;99.90;;;;;;5047490;28;20489;-90
2022/09/03 09:05:33;;;;;;;5.90;5.30;;;25.10;99.90;;;;;;5068501;28;20424;-89
2022/09/03 09:08:25;;;;;;;5.30;4.60;;;25.00;99.90;;;;;;5056499;28;20421;-94
2022/09/03 09:11:07;;;;;;;5.73;5.10;;;24.90;99.90;;;;;;5039858;28;20499;-88
2022/09/03 09:13:48;;;;;;;7.80;5.57;;;24.70;99.90;;;;;;5038755;28;20483;-88
2022/09/03 09:16:33;;;;;;;8.07;5.23;;;24.60;99.90;;;;;;5056803;28;20401;-95
2022/09/03 09:19:20;;;;;;;7.90;5.40;;;24.40;99.90;;;;;;5039565;28;20437;-94
2022/09/03 09:21:52;;;;;;;6.43;5.53;;;24.30;99.90;;;;;;5040115;28;20464;-95
2022/09/03 09:24:25;;;;;;;7.00;5.87;;;24.20;99.90;;;;;;5040556;28;20424;-89
2022/09/03 09:26:59;;;;;;;6.43;5.30;;;24.10;99.90;;;;;;5057623;28;20463;-95
2022/09/03 09:29:32;;;;;;;6.40;5.30;;;24.00;99.90;;;;;;5040016;28;20530;-92
2022/09/03 09:31:58;;;;;;;5.87;5.17;;;24.00;99.90;;;;;;5041137;28;20412;-94
2022/09/03 09:34:23;;;;;;;6.40;5.80;;;23.90;99.90;;;;;;5044046;28;20466;-95
2022/09/03 09:36:54;;;;;;;6.70;6.00;;;23.90;99.90;;;;;;5055082;28;20490;-89
2022/09/03 09:39:21;;;;;;;6.60;6.10;;;23.90;99.90;;;;;;5039628;28;20204;-94
2022/09/03 09:42:20;;;;;;;6.23;5.70;;;23.80;99.90;;;;;;5058378;28;20468;-89
2022/09/03 09:44:45;;;;;;;6.90;5.73;;;23.80;99.90;;;;;;5024222;28;20494;-93
2022/09/03 09:47:27;;;;;;;6.43;5.83;;;23.70;99.90;;;;;;5039288;28;20937;-89
2022/09/03 09:49:57;;;;;;;6.23;5.63;;;23.70;99.90;;;;;;5057059;28;20271;-95
2022/09/03 09:52:27;;;;;;;7.67;6.87;;;23.70;99.90;;;;;;5037649;28;20626;-90
2022/09/03 09:55:06;;;;;;;6.47;5.87;;;23.60;99.90;;;;;;5036919;28;20498;-91
2022/09/03 09:57:33;;;;;;;6.47;5.83;;;23.60;99.90;;;;;;5038631;28;20439;-91
2022/09/03 10:00:14;;;;;;;7.50;5.77;;;23.60;99.90;;;;;;5036552;28;20438;-90
2022/09/03 10:02:47;;;;;;;6.80;5.90;;;23.70;99.90;;;;;;5037438;28;20487;-95
2022/09/03 10:05:19;;;;;;;8.50;6.40;;;23.60;99.90;;;;;;5037320;28;20506;-95
2022/09/03 10:07:54;;;;;;;6.73;5.30;;;23.70;99.90;;;;;;5040143;28;20441;-94
2022/09/03 10:10:21;;;;;;;6.23;5.53;;;23.70;99.90;;;;;;5046283;28;20433;-90
2022/09/03 10:12:48;;;;;;;6.87;6.30;;;23.70;99.90;;;;;;5058298;28;20511;-90
2022/09/03 10:15:36;;;;;;;6.03;5.50;;;23.70;99.90;;;;;;5038361;28;20504;-90
2022/09/03 10:18:16;;;;;;;6.37;5.77;;;23.70;99.90;;;;;;5045352;28;20519;-94
2022/09/03 10:20:53;;;;;;;6.37;5.77;;;23.70;99.90;;;;;;5057543;28;20443;-91
2022/09/03 10:23:24;;;;;;;7.13;6.43;;;23.80;99.90;;;;;;5040732;28;20445;-93
2022/09/03 10:25:55;;;;;;;6.40;5.70;;;23.80;99.90;;;;;;5058379;28;20473;-94
2022/09/03 10:28:28;;;;;;;9.50;8.60;;;23.80;99.90;;;;;;5038907;28;20448;-95
2022/09/03 10:31:06;;;;;;;7.30;6.50;;;23.80;99.90;;;;;;5056875;28;20433;-90
2022/09/03 10:33:54;;;;;;;5.83;5.33;;;23.80;99.90;;;;;;5039751;28;20469;-95
2022/09/03 10:36:22;;;;;;;7.00;6.30;;;23.70;99.90;;;;;;5065651;28;20386;-95
2022/09/03 10:39:00;;;;;;;6.87;6.00;;;23.70;99.90;;;;;;5061035;28;20475;-93
2022/09/03 10:41:35;;;;;;;5.77;5.27;;;23.60;99.90;;;;;;5050869;28;20473;-93
2022/09/03 10:44:16;;;;;;;8.30;7.03;;;23.60;99.90;;;;;;5052165;28;20524;-92
2022/09/03 10:46:52;;;;;;;6.83;6.13;;;23.70;99.90;;;;;;5053771;28;20441;-92
2022/09/03 10:49:26;;;;;;;6.97;6.27;;;23.60;99.90;;;;;;5059887;28;20790;-93
2022/09/03 10:52:16;;;;;;;6.30;5.80;;;23.70;99.90;;;;;;5039289;28;20428;-95
2022/09/03 10:55:04;;;;;;;9.00;7.33;;;23.70;99.90;;;;;;5039910;28;20458;-95
2022/09/03 10:57:47;;;;;;;7.30;6.50;;;23.70;99.90;;;;;;5056215;28;20434;-94
2022/09/03 11:00:15;;;;;;;7.07;6.10;;;23.70;99.90;;;;;;5039639;28;20842;-88
2022/09/03 11:03:04;;;;;;;6.10;5.50;;;23.80;99.90;;;;;;5058364;28;20473;-88
2022/09/03 11:05:38;;;;;;;6.33;5.83;;;23.80;99.90;;;;;;5040663;28;20458;-93
2022/09/03 11:08:27;;;;;;;6.10;5.03;;;23.90;99.90;;;;;;5039497;28;20417;-90
2022/09/03 11:11:08;;;;;;;13.10;5.80;;;23.80;99.90;;;;;;5038676;28;20555;-96
2022/09/03 11:13:58;;;;;;;8.00;5.67;;;23.80;99.90;;;;;;5053424;28;20407;-92
2022/09/03 11:16:29;;;;;;;6.00;5.30;;;23.90;99.90;;;;;;5036709;28;20433;-92
2022/09/03 11:19:01;;;;;;;5.60;5.10;;;23.90;99.90;;;;;;5037813;28;20456;-87
2022/09/03 11:21:30;;;;;;;6.43;5.80;;;23.90;99.90;;;;;;5055155;28;20544;-95
2022/09/03 11:24:06;;;;;;;6.30;5.70;;;23.90;99.90;;;;;;5053911;28;20433;-89
2022/09/03 11:26:34;;;;;;;6.53;5.97;;;23.90;99.90;;;;;;5052494;28;20483;-93
2022/09/03 11:29:12;;;;;;;7.50;5.50;;;23.90;99.90;;;;;;5055212;28;20420;-89
2022/09/03 11:31:56;;;;;;;7.20;5.73;;;23.90;99.90;;;;;;5039252;28;20504;-92
2022/09/03 11:34:43;;;;;;;7.27;6.50;;;23.90;99.90;;;;;;5038945;28;20805;-92
2022/09/03 11:37:20;;;;;;;6.13;5.63;;;24.00;99.90;;;;;;5038727;28;20431;-94
2022/09/03 11:40:06;;;;;;;9.20;7.10;;;24.00;99.90;;;;;;5056995;28;20456;-94
2022/09/03 11:42:37;;;;;;;6.43;5.47;;;24.00;99.90;;;;;;5039006;28;20473;-91
2022/09/03 11:45:13;;;;;;;7.67;5.67;;;24.10;99.90;;;;;;5037628;28;20450;-89
2022/09/03 11:47:43;;;;;;;6.13;5.63;;;24.10;99.90;;;;;;5037847;28;20413;-87
2022/09/03 11:50:35;;;;;;;6.10;5.60;;;24.10;99.90;;;;;;5040971;28;20495;-93
2022/09/03 11:53:23;;;;;;;5.47;5.07;;;24.00;99.90;;;;;;5052670;28;20429;-91
2022/09/03 11:55:52;;;;;;;7.97;6.30;;;24.00;99.90;;;;;;5038762;28;20510;-89
2022/09/03 11:58:39;;;;;;;7.77;6.10;;;24.00;99.90;;;;;;5038876;28;20418;-96
2022/09/03 12:01:13;;;;;;;6.23;5.73;;;24.00;99.90;;;;;;5036803;28;20469;-90
2022/09/03 12:03:47;;;;;;;8.67;5.90;;;24.00;99.90;;;;;;5036836;28;20422;-93
2022/09/03 12:06:40;;;;;;;6.50;6.00;;;24.00;99.90;;;;;;5054994;28;20424;-91
2022/09/03 12:09:13;;;;;;;6.47;5.83;;;24.00;99.90;;;;;;5045318;28;20842;-93
2022/09/03 12:11:48;;;;;;;7.60;6.80;;;24.10;99.90;;;;;;5046688;28;20421;-93
2022/09/03 12:14:26;;;;;;;7.63;5.23;;;24.10;99.90;;;;;;5040895;28;20454;-92
2022/09/03 12:17:04;;;;;;;6.97;5.77;;;24.10;99.90;;;;;;5040453;28;20424;-94
2022/09/03 12:19:52;;;;;;;6.30;4.67;;;24.20;99.90;;;;;;5060676;28;20497;-94
2022/09/03 12:22:20;;;;;;;5.40;4.90;;;24.20;99.90;;;;;;5041883;28;20468;-92
2022/09/03 12:24:46;;;;;;;6.40;5.80;;;24.20;99.90;;;;;;5039701;28;21032;-92
2022/09/03 12:27:26;;;;;;;8.40;6.10;;;24.20;99.90;;;;;;5037513;28;20418;-90
2022/09/03 12:29:58;;;;;;;10.10;6.27;;;24.20;99.90;;;;;;5038349;28;20457;-92
2022/09/03 12:32:27;;;;;;;6.30;5.73;;;24.20;99.90;;;;;;5054006;28;20442;-91
2022/09/03 12:34:54;;;;;;;7.30;5.57;;;24.20;99.90;;;;;;5040848;28;20449;-93
2022/09/03 12:37:25;;;;;;;5.90;5.27;;;24.20;99.90;;;;;;5040092;28;20430;-94
2022/09/03 12:39:55;;;;;;;6.07;5.47;;;24.20;99.90;;;;;;5032012;28;20443;-91
2022/09/03 12:42:27;;;;;;;5.53;5.13;;;24.20;99.90;;;;;;5054823;28;20615;-91
2022/09/03 12:44:53;;;;;;;5.90;5.30;;;24.20;99.90;;;;;;5018527;28;20458;-91
2022/09/03 12:47:22;;;;;;;6.07;5.57;;;24.30;99.90;;;;;;5024001;28;20418;-90
2022/09/03 12:49:55;;;;;;;6.10;5.60;;;24.30;99.90;;;;;;5020536;28;20444;-94
2022/09/03 12:52:26;;;;;;;6.20;5.27;;;24.30;99.90;;;;;;5020173;28;20431;-92
2022/09/03 12:55:15;;;;;;;6.27;5.73;;;24.30;99.90;;;;;;5017745;28;20473;-90
2022/09/03 12:57:55;;;;;;;6.27;5.40;;;24.30;99.90;;;;;;5016962;28;20952;-94
2022/09/03 13:00:21;;;;;;;6.17;5.63;;;24.30;99.90;;;;;;5024098;28;20495;-94
2022/09/03 13:02:55;;;;;;;5.47;4.97;;;24.30;99.90;;;;;;5039171;28;20499;-88
2022/09/03 13:05:33;;;;;;;6.77;6.17;;;24.30;99.90;;;;;;5037603;28;20500;-96
2022/09/03 13:08:02;;;;;;;6.70;6.20;;;24.30;99.90;;;;;;5019081;28;20525;-90
2022/09/03 13:10:35;;;;;;;6.20;5.60;;;24.30;99.90;;;;;;5036942;28;20453;-92
2022/09/03 13:13:18;;;;;;;5.53;5.03;;;24.30;99.90;;;;;;5018595;28;20437;-90